KOLF/OLF METAR and TAF weather

Enter ICAO airport designator
Station Type Date Time Source
KOLF METAR 2020/02/24 08:53 UTC NOAA

KOLF 240853Z AUTO 07008KT 10SM OVC110 M01/M05 A2981 RMK AO2 SLP115 T10061050 56005


Station Type Date Time Source
KOLF Decoded METAR 2020/02/24 08:53 UTC NOAA

WOLF POINT CLAYTON AIRPORT, MT, United States (KOLF) 48-06N 105-35W 604M
Feb 24, 2020 - 03:53 AM EST / 2020.02.24 0853 UTC
Wind: from the ENE (070 degrees) at 9 MPH (8 KT):0
Visibility: 10 mile(s):0
Sky conditions: overcast
Temperature: 30.9 F (-0.6 C)
Windchill: 23 F (-5 C):1
Dew Point: 23.0 F (-5.0 C)
Relative Humidity: 72%
Pressure (altimeter): 29.81 in. Hg (1009 hPa)
Pressure tendency: 0.01 inches (0.5 hPa) lower than three hours ago
ob: KOLF 240853Z AUTO 07008KT 10SM OVC110 M01/M05 A2981 RMK AO2 SLP115 T10061050 56005
cycle: 9

Station Type Date Time Source
KOLF TAF 2020/02/24 06:40 UTC NOAA

TAF KOLF 240538Z 2406/2506 06008KT P6SM VCSH OVC080
TEMPO 2411/2413 5SM -SN OVC025
FM241300 04014KT 5SM -SN OVC015
FM242300 02020G30KT 1SM -SN BR OVC005 PROB30 2423/2501 1/2SM SN OVC001
FM250300 36015G22KT P6SM OVC025

Example: see airport list